sensor_id;sensor_type;location;lat;lon;timestamp;P1;durP1;ratioP1;P2;durP2;ratioP2
78834;SDS011;68187;42.682;23.352;2023-07-02T00:01:34;10.35;;;4.38;;
78834;SDS011;68187;42.682;23.352;2023-07-02T00:04:01;8.95;;;4.13;;
78834;SDS011;68187;42.682;23.352;2023-07-02T00:06:27;12.10;;;4.70;;
78834;SDS011;68187;42.682;23.352;2023-07-02T00:08:54;13.35;;;5.40;;
78834;SDS011;68187;42.682;23.352;2023-07-02T00:11:22;10.02;;;4.30;;
78834;SDS011;68187;42.682;23.352;2023-07-02T00:13:49;11.20;;;4.53;;
78834;SDS011;68187;42.682;23.352;2023-07-02T00:16:15;10.70;;;4.03;;
78834;SDS011;68187;42.682;23.352;2023-07-02T00:18:42;10.32;;;4.53;;
78834;SDS011;68187;42.682;23.352;2023-07-02T00:21:09;9.02;;;4.43;;
78834;SDS011;68187;42.682;23.352;2023-07-02T00:23:38;11.43;;;5.40;;
78834;SDS011;68187;42.682;23.352;2023-07-02T00:26:05;10.90;;;5.60;;
78834;SDS011;68187;42.682;23.352;2023-07-02T00:28:33;9.65;;;4.22;;
78834;SDS011;68187;42.682;23.352;2023-07-02T00:30:59;9.18;;;4.45;;
78834;SDS011;68187;42.682;23.352;2023-07-02T00:33:27;10.70;;;5.07;;
78834;SDS011;68187;42.682;23.352;2023-07-02T00:35:54;10.70;;;4.03;;
78834;SDS011;68187;42.682;23.352;2023-07-02T00:38:21;8.23;;;4.82;;
78834;SDS011;68187;42.682;23.352;2023-07-02T00:40:48;8.70;;;4.68;;
78834;SDS011;68187;42.682;23.352;2023-07-02T00:43:14;9.80;;;4.90;;
78834;SDS011;68187;42.682;23.352;2023-07-02T00:45:43;11.85;;;4.80;;
78834;SDS011;68187;42.682;23.352;2023-07-02T00:48:10;9.48;;;5.10;;
78834;SDS011;68187;42.682;23.352;2023-07-02T00:50:37;10.30;;;5.55;;
78834;SDS011;68187;42.682;23.352;2023-07-02T00:53:05;10.25;;;4.68;;
78834;SDS011;68187;42.682;23.352;2023-07-02T00:55:32;10.90;;;4.53;;
78834;SDS011;68187;42.682;23.352;2023-07-02T00:57:59;9.88;;;4.68;;
78834;SDS011;68187;42.682;23.352;2023-07-02T01:00:27;9.10;;;6.15;;
78834;SDS011;68187;42.682;23.352;2023-07-02T01:02:55;9.38;;;4.50;;
78834;SDS011;68187;42.682;23.352;2023-07-02T01:05:24;10.68;;;5.75;;
78834;SDS011;68187;42.682;23.352;2023-07-02T01:07:57;7.88;;;4.85;;
78834;SDS011;68187;42.682;23.352;2023-07-02T01:10:24;10.25;;;5.10;;
78834;SDS011;68187;42.682;23.352;2023-07-02T01:12:51;8.60;;;4.50;;
78834;SDS011;68187;42.682;23.352;2023-07-02T01:15:19;9.95;;;5.03;;
78834;SDS011;68187;42.682;23.352;2023-07-02T01:17:46;8.43;;;5.05;;
78834;SDS011;68187;42.682;23.352;2023-07-02T01:20:15;12.25;;;6.25;;
78834;SDS011;68187;42.682;23.352;2023-07-02T01:22:42;8.65;;;5.15;;
78834;SDS011;68187;42.682;23.352;2023-07-02T01:25:08;11.70;;;5.10;;
78834;SDS011;68187;42.682;23.352;2023-07-02T01:27:35;9.25;;;4.80;;
78834;SDS011;68187;42.682;23.352;2023-07-02T01:30:02;8.23;;;4.28;;
78834;SDS011;68187;42.682;23.352;2023-07-02T01:32:29;8.32;;;4.45;;
78834;SDS011;68187;42.682;23.352;2023-07-02T01:34:56;9.00;;;4.43;;
78834;SDS011;68187;42.682;23.352;2023-07-02T01:37:25;11.48;;;5.38;;
78834;SDS011;68187;42.682;23.352;2023-07-02T01:39:52;12.70;;;5.03;;
78834;SDS011;68187;42.682;23.352;2023-07-02T01:42:19;9.57;;;5.15;;
78834;SDS011;68187;42.682;23.352;2023-07-02T01:44:47;10.05;;;4.78;;
78834;SDS011;68187;42.682;23.352;2023-07-02T01:47:14;9.63;;;5.88;;
78834;SDS011;68187;42.682;23.352;2023-07-02T01:49:42;11.30;;;5.75;;
78834;SDS011;68187;42.682;23.352;2023-07-02T01:52:08;10.13;;;5.47;;
78834;SDS011;68187;42.682;23.352;2023-07-02T01:54:36;11.60;;;6.00;;
78834;SDS011;68187;42.682;23.352;2023-07-02T01:57:03;11.60;;;5.25;;
78834;SDS011;68187;42.682;23.352;2023-07-02T01:59:30;10.50;;;5.15;;
78834;SDS011;68187;42.682;23.352;2023-07-02T02:01:57;10.55;;;5.63;;
78834;SDS011;68187;42.682;23.352;2023-07-02T02:04:24;11.13;;;5.63;;
78834;SDS011;68187;42.682;23.352;2023-07-02T02:06:51;10.18;;;4.38;;
78834;SDS011;68187;42.682;23.352;2023-07-02T02:09:18;11.52;;;4.82;;
78834;SDS011;68187;42.682;23.352;2023-07-02T02:11:48;11.43;;;5.65;;
78834;SDS011;68187;42.682;23.352;2023-07-02T02:14:15;10.35;;;4.70;;
78834;SDS011;68187;42.682;23.352;2023-07-02T02:16:42;11.35;;;5.43;;
78834;SDS011;68187;42.682;23.352;2023-07-02T02:19:10;12.57;;;5.15;;
78834;SDS011;68187;42.682;23.352;2023-07-02T02:21:38;11.88;;;6.05;;
78834;SDS011;68187;42.682;23.352;2023-07-02T02:24:05;12.18;;;5.50;;
78834;SDS011;68187;42.682;23.352;2023-07-02T02:26:32;9.70;;;4.43;;
78834;SDS011;68187;42.682;23.352;2023-07-02T02:29:00;12.02;;;6.05;;
78834;SDS011;68187;42.682;23.352;2023-07-02T02:31:27;11.55;;;5.47;;
78834;SDS011;68187;42.682;23.352;2023-07-02T02:33:54;9.75;;;5.25;;
78834;SDS011;68187;42.682;23.352;2023-07-02T02:36:21;12.60;;;6.30;;
78834;SDS011;68187;42.682;23.352;2023-07-02T02:38:48;11.10;;;5.05;;
78834;SDS011;68187;42.682;23.352;2023-07-02T02:41:15;14.27;;;4.82;;
78834;SDS011;68187;42.682;23.352;2023-07-02T02:43:41;14.52;;;6.85;;
78834;SDS011;68187;42.682;23.352;2023-07-02T02:46:10;13.32;;;6.50;;
78834;SDS011;68187;42.682;23.352;2023-07-02T02:48:38;12.38;;;4.50;;
78834;SDS011;68187;42.682;23.352;2023-07-02T02:51:04;12.48;;;5.13;;
78834;SDS011;68187;42.682;23.352;2023-07-02T02:53:31;12.80;;;4.95;;
78834;SDS011;68187;42.682;23.352;2023-07-02T02:55:58;10.80;;;5.00;;
78834;SDS011;68187;42.682;23.352;2023-07-02T02:58:25;9.98;;;4.78;;
78834;SDS011;68187;42.682;23.352;2023-07-02T03:00:53;10.02;;;4.90;;
78834;SDS011;68187;42.682;23.352;2023-07-02T03:03:21;12.07;;;4.95;;
78834;SDS011;68187;42.682;23.352;2023-07-02T03:05:49;13.57;;;5.47;;
78834;SDS011;68187;42.682;23.352;2023-07-02T03:08:16;11.15;;;4.53;;
78834;SDS011;68187;42.682;23.352;2023-07-02T03:10:43;11.38;;;4.43;;
78834;SDS011;68187;42.682;23.352;2023-07-02T03:13:09;12.40;;;4.93;;
78834;SDS011;68187;42.682;23.352;2023-07-02T03:15:36;11.25;;;5.15;;
78834;SDS011;68187;42.682;23.352;2023-07-02T03:18:03;11.60;;;5.38;;
78834;SDS011;68187;42.682;23.352;2023-07-02T03:20:31;10.93;;;6.05;;
78834;SDS011;68187;42.682;23.352;2023-07-02T03:22:58;13.20;;;4.70;;
78834;SDS011;68187;42.682;23.352;2023-07-02T03:25:24;10.52;;;5.50;;
78834;SDS011;68187;42.682;23.352;2023-07-02T03:27:51;12.15;;;5.40;;
78834;SDS011;68187;42.682;23.352;2023-07-02T03:30:18;9.55;;;4.75;;
78834;SDS011;68187;42.682;23.352;2023-07-02T03:32:45;12.25;;;5.57;;
78834;SDS011;68187;42.682;23.352;2023-07-02T03:35:11;10.55;;;5.03;;
78834;SDS011;68187;42.682;23.352;2023-07-02T03:37:39;13.50;;;6.00;;
78834;SDS011;68187;42.682;23.352;2023-07-02T03:40:08;9.32;;;5.95;;
78834;SDS011;68187;42.682;23.352;2023-07-02T03:42:35;11.00;;;5.65;;
78834;SDS011;68187;42.682;23.352;2023-07-02T03:45:02;10.68;;;4.90;;
78834;SDS011;68187;42.682;23.352;2023-07-02T03:47:29;11.52;;;5.70;;
78834;SDS011;68187;42.682;23.352;2023-07-02T03:49:56;11.75;;;5.57;;
78834;SDS011;68187;42.682;23.352;2023-07-02T03:52:23;11.95;;;5.60;;
78834;SDS011;68187;42.682;23.352;2023-07-02T03:54:51;13.10;;;4.57;;
78834;SDS011;68187;42.682;23.352;2023-07-02T03:57:18;10.98;;;4.72;;
78834;SDS011;68187;42.682;23.352;2023-07-02T03:59:44;12.38;;;4.85;;
78834;SDS011;68187;42.682;23.352;2023-07-02T04:02:11;12.65;;;5.25;;
78834;SDS011;68187;42.682;23.352;2023-07-02T04:04:38;17.80;;;5.43;;
78834;SDS011;68187;42.682;23.352;2023-07-02T04:07:05;10.98;;;4.88;;
78834;SDS011;68187;42.682;23.352;2023-07-02T04:09:31;12.48;;;6.13;;
78834;SDS011;68187;42.682;23.352;2023-07-02T04:12:00;18.52;;;9.43;;
78834;SDS011;68187;42.682;23.352;2023-07-02T04:14:27;22.02;;;12.25;;
78834;SDS011;68187;42.682;23.352;2023-07-02T04:16:53;22.08;;;13.10;;
78834;SDS011;68187;42.682;23.352;2023-07-02T04:19:20;22.58;;;12.02;;
78834;SDS011;68187;42.682;23.352;2023-07-02T04:21:47;19.08;;;10.85;;
78834;SDS011;68187;42.682;23.352;2023-07-02T04:24:14;20.10;;;11.00;;
78834;SDS011;68187;42.682;23.352;2023-07-02T04:26:40;22.60;;;9.82;;
78834;SDS011;68187;42.682;23.352;2023-07-02T04:29:09;14.70;;;8.52;;
78834;SDS011;68187;42.682;23.352;2023-07-02T04:31:36;14.65;;;6.22;;
78834;SDS011;68187;42.682;23.352;2023-07-02T04:34:03;14.90;;;6.15;;
78834;SDS011;68187;42.682;23.352;2023-07-02T04:36:31;13.85;;;5.93;;
78834;SDS011;68187;42.682;23.352;2023-07-02T04:38:57;10.95;;;5.03;;
78834;SDS011;68187;42.682;23.352;2023-07-02T04:41:24;15.95;;;7.13;;
78834;SDS011;68187;42.682;23.352;2023-07-02T04:43:52;15.35;;;7.00;;
78834;SDS011;68187;42.682;23.352;2023-07-02T04:46:20;14.25;;;7.00;;
78834;SDS011;68187;42.682;23.352;2023-07-02T04:48:47;13.68;;;6.70;;
78834;SDS011;68187;42.682;23.352;2023-07-02T04:51:13;12.55;;;6.65;;
78834;SDS011;68187;42.682;23.352;2023-07-02T04:53:40;13.93;;;5.80;;
78834;SDS011;68187;42.682;23.352;2023-07-02T04:56:07;14.35;;;6.35;;
78834;SDS011;68187;42.682;23.352;2023-07-02T04:58:34;17.55;;;7.60;;
78834;SDS011;68187;42.682;23.352;2023-07-02T05:01:01;12.85;;;6.97;;
78834;SDS011;68187;42.682;23.352;2023-07-02T05:03:29;14.65;;;7.18;;
78834;SDS011;68187;42.682;23.352;2023-07-02T05:05:55;14.75;;;6.85;;
78834;SDS011;68187;42.682;23.352;2023-07-02T05:08:22;12.25;;;6.97;;
78834;SDS011;68187;42.682;23.352;2023-07-02T05:10:49;13.27;;;6.63;;
78834;SDS011;68187;42.682;23.352;2023-07-02T05:13:16;12.35;;;6.00;;
78834;SDS011;68187;42.682;23.352;2023-07-02T05:15:42;12.75;;;6.32;;
78834;SDS011;68187;42.682;23.352;2023-07-02T05:18:09;14.98;;;6.90;;
78834;SDS011;68187;42.682;23.352;2023-07-02T05:20:37;12.55;;;5.35;;
78834;SDS011;68187;42.682;23.352;2023-07-02T05:23:04;10.55;;;5.53;;
78834;SDS011;68187;42.682;23.352;2023-07-02T05:25:31;13.60;;;5.53;;
78834;SDS011;68187;42.682;23.352;2023-07-02T05:27:58;12.32;;;6.85;;
78834;SDS011;68187;42.682;23.352;2023-07-02T05:30:25;14.48;;;6.38;;
78834;SDS011;68187;42.682;23.352;2023-07-02T05:32:52;13.85;;;5.95;;
78834;SDS011;68187;42.682;23.352;2023-07-02T05:35:19;13.73;;;5.97;;
78834;SDS011;68187;42.682;23.352;2023-07-02T05:37:47;10.05;;;5.25;;
78834;SDS011;68187;42.682;23.352;2023-07-02T05:40:13;15.93;;;6.20;;
78834;SDS011;68187;42.682;23.352;2023-07-02T05:42:40;14.48;;;6.45;;
78834;SDS011;68187;42.682;23.352;2023-07-02T05:45:08;14.40;;;7.20;;
78834;SDS011;68187;42.682;23.352;2023-07-02T05:47:35;13.02;;;7.05;;
78834;SDS011;68187;42.682;23.352;2023-07-02T05:50:02;15.15;;;5.25;;
78834;SDS011;68187;42.682;23.352;2023-07-02T05:52:29;13.75;;;7.35;;
78834;SDS011;68187;42.682;23.352;2023-07-02T05:54:57;11.60;;;5.80;;
78834;SDS011;68187;42.682;23.352;2023-07-02T05:57:24;12.57;;;6.15;;
78834;SDS011;68187;42.682;23.352;2023-07-02T05:59:50;13.52;;;6.57;;
78834;SDS011;68187;42.682;23.352;2023-07-02T06:02:17;14.15;;;5.68;;
78834;SDS011;68187;42.682;23.352;2023-07-02T06:04:44;15.02;;;6.35;;
78834;SDS011;68187;42.682;23.352;2023-07-02T06:07:10;17.67;;;7.05;;
78834;SDS011;68187;42.682;23.352;2023-07-02T06:09:37;13.23;;;6.57;;
78834;SDS011;68187;42.682;23.352;2023-07-02T06:12:05;11.30;;;5.75;;
78834;SDS011;68187;42.682;23.352;2023-07-02T06:14:33;11.25;;;5.90;;
78834;SDS011;68187;42.682;23.352;2023-07-02T06:16:59;11.82;;;6.60;;
78834;SDS011;68187;42.682;23.352;2023-07-02T06:19:30;12.07;;;6.05;;
78834;SDS011;68187;42.682;23.352;2023-07-02T06:21:57;12.00;;;6.00;;
78834;SDS011;68187;42.682;23.352;2023-07-02T06:24:24;12.63;;;6.13;;
78834;SDS011;68187;42.682;23.352;2023-07-02T06:26:50;15.63;;;6.43;;
78834;SDS011;68187;42.682;23.352;2023-07-02T06:29:18;15.88;;;6.57;;
78834;SDS011;68187;42.682;23.352;2023-07-02T06:31:45;14.02;;;6.28;;
78834;SDS011;68187;42.682;23.352;2023-07-02T06:34:12;12.95;;;6.20;;
78834;SDS011;68187;42.682;23.352;2023-07-02T06:36:39;14.85;;;6.65;;
78834;SDS011;68187;42.682;23.352;2023-07-02T06:39:06;12.60;;;5.82;;
78834;SDS011;68187;42.682;23.352;2023-07-02T06:41:34;14.50;;;7.25;;
78834;SDS011;68187;42.682;23.352;2023-07-02T06:44:01;14.82;;;6.60;;
78834;SDS011;68187;42.682;23.352;2023-07-02T06:46:29;14.27;;;7.25;;
78834;SDS011;68187;42.682;23.352;2023-07-02T06:48:56;12.43;;;7.32;;
78834;SDS011;68187;42.682;23.352;2023-07-02T06:51:22;12.32;;;6.57;;
78834;SDS011;68187;42.682;23.352;2023-07-02T06:53:51;16.15;;;6.72;;
78834;SDS011;68187;42.682;23.352;2023-07-02T06:56:17;15.13;;;7.07;;
78834;SDS011;68187;42.682;23.352;2023-07-02T06:58:44;11.65;;;5.80;;
78834;SDS011;68187;42.682;23.352;2023-07-02T07:01:11;13.57;;;7.60;;
78834;SDS011;68187;42.682;23.352;2023-07-02T07:03:39;12.93;;;6.97;;
78834;SDS011;68187;42.682;23.352;2023-07-02T07:06:06;13.13;;;7.50;;
78834;SDS011;68187;42.682;23.352;2023-07-02T07:08:33;12.95;;;6.63;;
78834;SDS011;68187;42.682;23.352;2023-07-02T07:11:02;13.57;;;7.10;;
78834;SDS011;68187;42.682;23.352;2023-07-02T07:13:29;13.02;;;6.80;;
78834;SDS011;68187;42.682;23.352;2023-07-02T07:15:56;11.10;;;6.10;;
78834;SDS011;68187;42.682;23.352;2023-07-02T07:18:23;13.43;;;5.95;;
78834;SDS011;68187;42.682;23.352;2023-07-02T07:20:51;15.00;;;6.55;;
78834;SDS011;68187;42.682;23.352;2023-07-02T07:23:18;12.52;;;7.28;;
78834;SDS011;68187;42.682;23.352;2023-07-02T07:25:45;12.27;;;6.60;;
78834;SDS011;68187;42.682;23.352;2023-07-02T07:28:12;11.32;;;5.32;;
78834;SDS011;68187;42.682;23.352;2023-07-02T07:30:40;13.82;;;5.10;;
78834;SDS011;68187;42.682;23.352;2023-07-02T07:33:07;11.13;;;5.30;;
78834;SDS011;68187;42.682;23.352;2023-07-02T07:35:34;12.25;;;5.28;;
78834;SDS011;68187;42.682;23.352;2023-07-02T07:38:02;12.10;;;6.20;;
78834;SDS011;68187;42.682;23.352;2023-07-02T07:40:29;13.75;;;6.00;;
78834;SDS011;68187;42.682;23.352;2023-07-02T07:42:56;13.43;;;7.20;;
78834;SDS011;68187;42.682;23.352;2023-07-02T07:45:22;11.30;;;5.28;;
78834;SDS011;68187;42.682;23.352;2023-07-02T07:47:49;10.95;;;4.90;;
78834;SDS011;68187;42.682;23.352;2023-07-02T07:50:16;12.13;;;6.40;;
78834;SDS011;68187;42.682;23.352;2023-07-02T07:52:43;13.38;;;5.15;;
78834;SDS011;68187;42.682;23.352;2023-07-02T07:55:11;11.93;;;5.55;;
78834;SDS011;68187;42.682;23.352;2023-07-02T07:57:38;13.45;;;5.90;;
78834;SDS011;68187;42.682;23.352;2023-07-02T08:00:05;11.73;;;6.15;;
78834;SDS011;68187;42.682;23.352;2023-07-02T08:02:34;13.05;;;5.85;;
78834;SDS011;68187;42.682;23.352;2023-07-02T08:05:01;12.40;;;5.95;;
78834;SDS011;68187;42.682;23.352;2023-07-02T08:07:27;13.45;;;6.85;;
78834;SDS011;68187;42.682;23.352;2023-07-02T08:09:54;11.60;;;6.85;;
78834;SDS011;68187;42.682;23.352;2023-07-02T08:12:22;13.80;;;6.70;;
78834;SDS011;68187;42.682;23.352;2023-07-02T08:14:49;11.85;;;5.85;;
78834;SDS011;68187;42.682;23.352;2023-07-02T08:17:16;14.35;;;7.10;;
78834;SDS011;68187;42.682;23.352;2023-07-02T08:19:42;12.55;;;5.68;;
78834;SDS011;68187;42.682;23.352;2023-07-02T08:22:09;13.40;;;5.65;;
78834;SDS011;68187;42.682;23.352;2023-07-02T08:24:36;11.35;;;5.00;;
78834;SDS011;68187;42.682;23.352;2023-07-02T08:27:03;9.77;;;5.18;;
78834;SDS011;68187;42.682;23.352;2023-07-02T08:29:31;11.88;;;6.00;;
78834;SDS011;68187;42.682;23.352;2023-07-02T08:31:58;11.90;;;5.72;;
78834;SDS011;68187;42.682;23.352;2023-07-02T08:34:25;13.45;;;6.10;;
78834;SDS011;68187;42.682;23.352;2023-07-02T08:36:52;12.48;;;6.82;;
78834;SDS011;68187;42.682;23.352;2023-07-02T08:39:19;11.27;;;5.32;;
78834;SDS011;68187;42.682;23.352;2023-07-02T08:41:45;11.73;;;5.18;;
78834;SDS011;68187;42.682;23.352;2023-07-02T08:44:14;10.73;;;5.30;;
78834;SDS011;68187;42.682;23.352;2023-07-02T08:46:42;9.88;;;5.10;;
78834;SDS011;68187;42.682;23.352;2023-07-02T08:49:09;11.27;;;5.22;;
78834;SDS011;68187;42.682;23.352;2023-07-02T08:51:36;13.65;;;5.13;;
78834;SDS011;68187;42.682;23.352;2023-07-02T08:54:03;12.98;;;5.78;;
78834;SDS011;68187;42.682;23.352;2023-07-02T08:56:30;9.98;;;5.53;;
78834;SDS011;68187;42.682;23.352;2023-07-02T08:58:57;10.57;;;6.45;;
78834;SDS011;68187;42.682;23.352;2023-07-02T09:01:23;10.30;;;4.72;;
78834;SDS011;68187;42.682;23.352;2023-07-02T09:03:52;11.10;;;5.28;;
78834;SDS011;68187;42.682;23.352;2023-07-02T09:06:18;10.50;;;5.72;;
78834;SDS011;68187;42.682;23.352;2023-07-02T09:08:45;10.70;;;4.80;;
78834;SDS011;68187;42.682;23.352;2023-07-02T09:11:12;11.02;;;5.03;;
78834;SDS011;68187;42.682;23.352;2023-07-02T09:13:43;13.00;;;5.32;;
78834;SDS011;68187;42.682;23.352;2023-07-02T09:16:20;9.60;;;4.25;;
78834;SDS011;68187;42.682;23.352;2023-07-02T09:18:59;11.18;;;5.05;;
78834;SDS011;68187;42.682;23.352;2023-07-02T09:21:27;9.75;;;5.05;;
78834;SDS011;68187;42.682;23.352;2023-07-02T09:23:54;8.43;;;3.90;;
78834;SDS011;68187;42.682;23.352;2023-07-02T09:26:22;10.32;;;5.38;;
78834;SDS011;68187;42.682;23.352;2023-07-02T09:28:49;12.13;;;3.97;;
78834;SDS011;68187;42.682;23.352;2023-07-02T09:31:16;8.65;;;4.03;;
78834;SDS011;68187;42.682;23.352;2023-07-02T09:33:43;9.73;;;4.78;;
78834;SDS011;68187;42.682;23.352;2023-07-02T09:36:11;10.52;;;5.38;;
78834;SDS011;68187;42.682;23.352;2023-07-02T09:38:39;7.93;;;4.28;;
78834;SDS011;68187;42.682;23.352;2023-07-02T09:41:06;9.05;;;4.30;;
78834;SDS011;68187;42.682;23.352;2023-07-02T09:43:34;9.75;;;4.68;;
78834;SDS011;68187;42.682;23.352;2023-07-02T09:46:01;10.60;;;4.10;;
78834;SDS011;68187;42.682;23.352;2023-07-02T09:48:29;8.85;;;5.22;;
78834;SDS011;68187;42.682;23.352;2023-07-02T09:51:01;8.32;;;4.18;;
78834;SDS011;68187;42.682;23.352;2023-07-02T09:53:31;12.05;;;4.53;;
78834;SDS011;68187;42.682;23.352;2023-07-02T09:55:58;9.75;;;4.75;;
78834;SDS011;68187;42.682;23.352;2023-07-02T09:58:25;8.68;;;4.10;;
78834;SDS011;68187;42.682;23.352;2023-07-02T10:00:52;8.77;;;5.32;;
78834;SDS011;68187;42.682;23.352;2023-07-02T10:03:27;12.32;;;5.25;;
78834;SDS011;68187;42.682;23.352;2023-07-02T10:06:02;9.48;;;4.03;;
78834;SDS011;68187;42.682;23.352;2023-07-02T10:08:31;9.93;;;4.53;;
78834;SDS011;68187;42.682;23.352;2023-07-02T10:11:08;9.60;;;4.55;;
78834;SDS011;68187;42.682;23.352;2023-07-02T10:16:02;10.68;;;4.50;;
78834;SDS011;68187;42.682;23.352;2023-07-02T10:18:29;9.75;;;5.05;;
78834;SDS011;68187;42.682;23.352;2023-07-02T10:20:56;8.27;;;4.38;;
78834;SDS011;68187;42.682;23.352;2023-07-02T10:23:33;10.68;;;4.55;;
78834;SDS011;68187;42.682;23.352;2023-07-02T10:26:10;9.13;;;4.10;;
78834;SDS011;68187;42.682;23.352;2023-07-02T10:28:37;7.97;;;3.67;;
78834;SDS011;68187;42.682;23.352;2023-07-02T10:31:04;9.43;;;4.65;;
78834;SDS011;68187;42.682;23.352;2023-07-02T10:33:31;9.80;;;5.07;;
78834;SDS011;68187;42.682;23.352;2023-07-02T10:35:57;10.73;;;4.45;;
78834;SDS011;68187;42.682;23.352;2023-07-02T10:38:25;8.77;;;4.63;;
78834;SDS011;68187;42.682;23.352;2023-07-02T10:40:57;8.45;;;4.65;;
78834;SDS011;68187;42.682;23.352;2023-07-02T10:43:24;7.78;;;3.80;;
78834;SDS011;68187;42.682;23.352;2023-07-02T10:45:52;9.82;;;4.72;;
78834;SDS011;68187;42.682;23.352;2023-07-02T10:48:19;12.75;;;4.68;;
78834;SDS011;68187;42.682;23.352;2023-07-02T10:50:46;8.85;;;4.35;;
78834;SDS011;68187;42.682;23.352;2023-07-02T10:53:16;7.65;;;3.92;;
78834;SDS011;68187;42.682;23.352;2023-07-02T10:58:12;9.50;;;3.35;;
78834;SDS011;68187;42.682;23.352;2023-07-02T11:00:43;7.78;;;4.05;;
78834;SDS011;68187;42.682;23.352;2023-07-02T11:03:16;8.65;;;3.80;;
78834;SDS011;68187;42.682;23.352;2023-07-02T11:05:44;9.55;;;3.92;;
78834;SDS011;68187;42.682;23.352;2023-07-02T11:08:11;9.05;;;4.95;;
78834;SDS011;68187;42.682;23.352;2023-07-02T11:10:38;7.00;;;4.72;;
78834;SDS011;68187;42.682;23.352;2023-07-02T11:13:15;8.55;;;4.78;;
78834;SDS011;68187;42.682;23.352;2023-07-02T11:15:43;7.55;;;4.22;;
78834;SDS011;68187;42.682;23.352;2023-07-02T11:18:11;10.45;;;4.50;;
78834;SDS011;68187;42.682;23.352;2023-07-02T11:20:38;9.70;;;5.03;;
78834;SDS011;68187;42.682;23.352;2023-07-02T11:23:16;10.13;;;5.20;;
78834;SDS011;68187;42.682;23.352;2023-07-02T11:25:53;7.63;;;3.58;;
78834;SDS011;68187;42.682;23.352;2023-07-02T11:28:22;7.07;;;3.72;;
78834;SDS011;68187;42.682;23.352;2023-07-02T11:30:48;9.02;;;4.43;;
78834;SDS011;68187;42.682;23.352;2023-07-02T11:33:15;7.85;;;3.72;;
78834;SDS011;68187;42.682;23.352;2023-07-02T11:35:42;6.97;;;3.92;;
78834;SDS011;68187;42.682;23.352;2023-07-02T11:38:09;9.25;;;3.95;;
78834;SDS011;68187;42.682;23.352;2023-07-02T11:40:36;8.23;;;3.45;;
78834;SDS011;68187;42.682;23.352;2023-07-02T11:43:03;6.50;;;2.90;;
78834;SDS011;68187;42.682;23.352;2023-07-02T11:45:32;7.55;;;4.03;;
78834;SDS011;68187;42.682;23.352;2023-07-02T11:47:59;9.82;;;4.68;;
78834;SDS011;68187;42.682;23.352;2023-07-02T11:50:25;8.30;;;2.85;;
78834;SDS011;68187;42.682;23.352;2023-07-02T11:52:52;13.52;;;4.25;;
78834;SDS011;68187;42.682;23.352;2023-07-02T11:55:19;8.48;;;4.57;;
78834;SDS011;68187;42.682;23.352;2023-07-02T11:57:46;9.25;;;3.97;;
78834;SDS011;68187;42.682;23.352;2023-07-02T12:00:14;7.30;;;3.53;;
78834;SDS011;68187;42.682;23.352;2023-07-02T12:02:42;7.03;;;3.72;;
78834;SDS011;68187;42.682;23.352;2023-07-02T12:05:09;8.48;;;3.55;;
78834;SDS011;68187;42.682;23.352;2023-07-02T12:07:36;7.43;;;3.28;;
78834;SDS011;68187;42.682;23.352;2023-07-02T12:10:03;7.07;;;3.63;;
78834;SDS011;68187;42.682;23.352;2023-07-02T12:12:30;9.60;;;3.03;;
78834;SDS011;68187;42.682;23.352;2023-07-02T12:14:57;7.95;;;3.70;;
78834;SDS011;68187;42.682;23.352;2023-07-02T12:17:23;8.23;;;3.05;;
78834;SDS011;68187;42.682;23.352;2023-07-02T12:19:51;7.05;;;2.92;;
78834;SDS011;68187;42.682;23.352;2023-07-02T12:22:18;7.10;;;3.22;;
78834;SDS011;68187;42.682;23.352;2023-07-02T12:24:47;9.73;;;3.03;;
78834;SDS011;68187;42.682;23.352;2023-07-02T12:27:15;9.48;;;3.88;;
78834;SDS011;68187;42.682;23.352;2023-07-02T12:29:42;7.63;;;3.42;;
78834;SDS011;68187;42.682;23.352;2023-07-02T12:32:08;7.05;;;3.28;;
78834;SDS011;68187;42.682;23.352;2023-07-02T12:34:35;5.72;;;2.50;;
78834;SDS011;68187;42.682;23.352;2023-07-02T12:37:04;6.80;;;2.92;;
78834;SDS011;68187;42.682;23.352;2023-07-02T12:39:31;8.10;;;3.85;;
78834;SDS011;68187;42.682;23.352;2023-07-02T12:41:57;6.85;;;3.45;;
78834;SDS011;68187;42.682;23.352;2023-07-02T12:44:24;7.75;;;3.03;;
78834;SDS011;68187;42.682;23.352;2023-07-02T12:46:51;9.82;;;3.45;;
78834;SDS011;68187;42.682;23.352;2023-07-02T12:49:18;6.85;;;3.22;;
78834;SDS011;68187;42.682;23.352;2023-07-02T12:51:45;9.05;;;3.85;;
78834;SDS011;68187;42.682;23.352;2023-07-02T12:54:13;7.43;;;4.05;;
78834;SDS011;68187;42.682;23.352;2023-07-02T12:56:40;8.52;;;3.25;;
78834;SDS011;68187;42.682;23.352;2023-07-02T12:59:07;9.25;;;3.63;;
78834;SDS011;68187;42.682;23.352;2023-07-02T13:01:34;8.68;;;4.35;;
78834;SDS011;68187;42.682;23.352;2023-07-02T13:04:00;7.70;;;2.97;;
78834;SDS011;68187;42.682;23.352;2023-07-02T13:06:28;9.82;;;4.05;;
78834;SDS011;68187;42.682;23.352;2023-07-02T13:08:59;8.35;;;3.58;;
78834;SDS011;68187;42.682;23.352;2023-07-02T13:11:27;8.52;;;4.55;;
78834;SDS011;68187;42.682;23.352;2023-07-02T13:13:54;6.80;;;3.25;;
78834;SDS011;68187;42.682;23.352;2023-07-02T13:16:21;8.23;;;3.65;;
78834;SDS011;68187;42.682;23.352;2023-07-02T13:18:49;8.68;;;4.10;;
78834;SDS011;68187;42.682;23.352;2023-07-02T13:21:15;8.65;;;3.47;;
78834;SDS011;68187;42.682;23.352;2023-07-02T13:23:42;9.77;;;3.83;;
78834;SDS011;68187;42.682;23.352;2023-07-02T13:26:09;8.35;;;4.40;;
78834;SDS011;68187;42.682;23.352;2023-07-02T13:28:37;12.40;;;5.32;;
78834;SDS011;68187;42.682;23.352;2023-07-02T13:31:04;11.45;;;4.03;;
78834;SDS011;68187;42.682;23.352;2023-07-02T13:33:30;7.68;;;3.47;;
78834;SDS011;68187;42.682;23.352;2023-07-02T13:35:57;8.80;;;3.63;;
78834;SDS011;68187;42.682;23.352;2023-07-02T13:38:24;9.25;;;4.90;;
78834;SDS011;68187;42.682;23.352;2023-07-02T13:40:51;7.43;;;4.13;;
78834;SDS011;68187;42.682;23.352;2023-07-02T13:43:18;9.27;;;3.67;;
78834;SDS011;68187;42.682;23.352;2023-07-02T13:45:46;7.93;;;3.33;;
78834;SDS011;68187;42.682;23.352;2023-07-02T13:48:13;7.65;;;3.63;;
78834;SDS011;68187;42.682;23.352;2023-07-02T13:50:39;10.18;;;5.47;;
78834;SDS011;68187;42.682;23.352;2023-07-02T13:53:07;7.43;;;4.15;;
78834;SDS011;68187;42.682;23.352;2023-07-02T13:55:34;11.68;;;4.15;;
78834;SDS011;68187;42.682;23.352;2023-07-02T13:58:00;7.32;;;3.97;;
78834;SDS011;68187;42.682;23.352;2023-07-02T14:00:28;7.32;;;3.85;;
78834;SDS011;68187;42.682;23.352;2023-07-02T14:02:55;9.05;;;3.78;;
78834;SDS011;68187;42.682;23.352;2023-07-02T14:05:22;9.18;;;5.53;;
78834;SDS011;68187;42.682;23.352;2023-07-02T14:07:49;10.40;;;6.32;;
78834;SDS011;68187;42.682;23.352;2023-07-02T14:10:16;8.27;;;3.88;;
78834;SDS011;68187;42.682;23.352;2023-07-02T14:12:43;8.75;;;4.55;;
78834;SDS011;68187;42.682;23.352;2023-07-02T14:15:10;9.27;;;4.22;;
78834;SDS011;68187;42.682;23.352;2023-07-02T14:17:38;9.13;;;4.22;;
78834;SDS011;68187;42.682;23.352;2023-07-02T14:20:06;7.85;;;3.47;;
78834;SDS011;68187;42.682;23.352;2023-07-02T14:22:34;8.82;;;4.35;;
78834;SDS011;68187;42.682;23.352;2023-07-02T14:25:01;9.73;;;4.68;;
78834;SDS011;68187;42.682;23.352;2023-07-02T14:27:28;9.32;;;4.35;;
78834;SDS011;68187;42.682;23.352;2023-07-02T14:29:55;10.65;;;5.20;;
78834;SDS011;68187;42.682;23.352;2023-07-02T14:32:22;9.60;;;5.60;;